CheckWX is a tool to help pilots better visualize weather data.  It is not intended as a substitute for an official pre-flight weather briefing.

08:05:38 UTC

KSNY TAF
Sidney Municipal / Lloyd W Carr Field Airport
Sidney, Nebraska, USA
KSNY 190556Z 1906/2006 33010KT P6SM BKN050 BKN100 FM191200 34015KT P6SM BKN050 BKN100 FM191700 34015G25KT P6SM SCT100 FM200000 31008KT P6SM FEW050

Mar-19@
06:00 UTC

Mar-19 @ 06:00 UTC

Mar-19@
12:00 UTC

Mar-19 @ 12:00 UTC

KSNY 190556Z 1906/2006 33010KT P6SM BKN050 BKN100
Wind
  • 330° at 10 KTS
Cloud Levels
  • Broken at 5,000' AGL
  • Broken at 10,000' AGL

Mar-19@
12:00 UTC

Mar-19 @ 12:00 UTC

Mar-19@
17:00 UTC

Mar-19 @ 17:00 UTC

FM191200 34015KT P6SM BKN050 BKN100

From

From Standard forecast or significant change

Wind
  • 340° at 15 KTS
Cloud Levels
  • Broken at 5,000' AGL
  • Broken at 10,000' AGL

Mar-19@
17:00 UTC

Mar-19 @ 17:00 UTC

Mar-20@
00:00 UTC

Mar-20 @ 00:00 UTC

FM191700 34015G25KT P6SM SCT100

From

From Standard forecast or significant change

Wind
  • 340° at 15 KTS
  • {Gusting to 25 KTS
Cloud Levels
  • Scattered at 10,000' AGL

Mar-20@
00:00 UTC

Mar-20 @ 00:00 UTC

Mar-20@
06:00 UTC

Mar-20 @ 06:00 UTC

FM200000 31008KT P6SM FEW050

From

From Standard forecast or significant change

Wind
  • 310° at 8 KTS
Cloud Levels
  • Few at 5,000' AGL